sensor_id;sensor_type;location;lat;lon;timestamp;temperature;humidity
48575;DHT22;34352;51.084;3.712;2023-04-06T00:00:47;10.10;1.00
48575;DHT22;34352;51.084;3.712;2023-04-06T00:03:13;10.00;1.00
48575;DHT22;34352;51.084;3.712;2023-04-06T00:05:39;10.00;1.00
48575;DHT22;34352;51.084;3.712;2023-04-06T00:08:04;10.00;1.00
48575;DHT22;34352;51.084;3.712;2023-04-06T00:10:30;10.10;1.00
48575;DHT22;34352;51.084;3.712;2023-04-06T00:12:59;10.10;1.00
48575;DHT22;34352;51.084;3.712;2023-04-06T00:15:25;10.00;1.00
48575;DHT22;34352;51.084;3.712;2023-04-06T00:17:51;10.00;1.00
48575;DHT22;34352;51.084;3.712;2023-04-06T00:20:17;10.00;1.00
48575;DHT22;34352;51.084;3.712;2023-04-06T00:22:43;10.10;1.00
48575;DHT22;34352;51.084;3.712;2023-04-06T00:25:09;10.10;1.00
48575;DHT22;34352;51.084;3.712;2023-04-06T00:27:38;10.20;1.00
48575;DHT22;34352;51.084;3.712;2023-04-06T00:30:05;10.00;1.00
48575;DHT22;34352;51.084;3.712;2023-04-06T00:32:34;10.00;1.00
48575;DHT22;34352;51.084;3.712;2023-04-06T00:35:01;10.10;1.00
48575;DHT22;34352;51.084;3.712;2023-04-06T00:37:27;10.10;1.00
48575;DHT22;34352;51.084;3.712;2023-04-06T00:39:53;10.00;1.00
48575;DHT22;34352;51.084;3.712;2023-04-06T00:42:21;9.90;1.00
48575;DHT22;34352;51.084;3.712;2023-04-06T00:44:53;10.00;1.00
48575;DHT22;34352;51.084;3.712;2023-04-06T00:47:20;10.00;1.00
48575;DHT22;34352;51.084;3.712;2023-04-06T00:49:46;10.00;1.00
48575;DHT22;34352;51.084;3.712;2023-04-06T00:52:12;9.80;1.00
48575;DHT22;34352;51.084;3.712;2023-04-06T00:54:40;9.70;1.00
48575;DHT22;34352;51.084;3.712;2023-04-06T00:57:06;9.70;1.00
48575;DHT22;34352;51.084;3.712;2023-04-06T00:59:32;9.70;1.00
48575;DHT22;34352;51.084;3.712;2023-04-06T01:01:58;9.60;1.00
48575;DHT22;34352;51.084;3.712;2023-04-06T01:04:25;9.60;1.00
48575;DHT22;34352;51.084;3.712;2023-04-06T01:06:51;9.60;1.00
48575;DHT22;34352;51.084;3.712;2023-04-06T01:09:18;9.60;1.00
48575;DHT22;34352;51.084;3.712;2023-04-06T01:11:46;9.70;1.00
48575;DHT22;34352;51.084;3.712;2023-04-06T01:14:12;9.70;1.00
48575;DHT22;34352;51.084;3.712;2023-04-06T01:16:38;9.60;1.00
48575;DHT22;34352;51.084;3.712;2023-04-06T01:19:08;9.50;1.00
48575;DHT22;34352;51.084;3.712;2023-04-06T01:21:35;9.60;1.00
48575;DHT22;34352;51.084;3.712;2023-04-06T01:24:01;9.70;1.00
48575;DHT22;34352;51.084;3.712;2023-04-06T01:26:28;9.60;1.00
48575;DHT22;34352;51.084;3.712;2023-04-06T01:28:55;9.50;1.00
48575;DHT22;34352;51.084;3.712;2023-04-06T01:31:24;9.60;1.00
48575;DHT22;34352;51.084;3.712;2023-04-06T01:33:50;9.60;1.00
48575;DHT22;34352;51.084;3.712;2023-04-06T01:36:17;9.60;1.00
48575;DHT22;34352;51.084;3.712;2023-04-06T01:38:43;9.60;1.00
48575;DHT22;34352;51.084;3.712;2023-04-06T01:41:11;9.60;1.00
48575;DHT22;34352;51.084;3.712;2023-04-06T01:43:37;9.60;1.00
48575;DHT22;34352;51.084;3.712;2023-04-06T01:46:04;9.50;1.00
48575;DHT22;34352;51.084;3.712;2023-04-06T01:48:31;9.50;1.00
48575;DHT22;34352;51.084;3.712;2023-04-06T01:50:56;9.40;1.00
48575;DHT22;34352;51.084;3.712;2023-04-06T01:53:23;9.50;1.00
48575;DHT22;34352;51.084;3.712;2023-04-06T01:55:49;9.50;1.00
48575;DHT22;34352;51.084;3.712;2023-04-06T01:58:14;9.60;1.00
48575;DHT22;34352;51.084;3.712;2023-04-06T02:00:40;9.40;1.00
48575;DHT22;34352;51.084;3.712;2023-04-06T02:03:06;9.40;1.00
48575;DHT22;34352;51.084;3.712;2023-04-06T02:05:32;9.60;1.00
48575;DHT22;34352;51.084;3.712;2023-04-06T02:08:04;9.50;1.00
48575;DHT22;34352;51.084;3.712;2023-04-06T02:10:32;9.50;1.00
48575;DHT22;34352;51.084;3.712;2023-04-06T02:12:58;9.60;1.00
48575;DHT22;34352;51.084;3.712;2023-04-06T02:15:25;9.40;1.00
48575;DHT22;34352;51.084;3.712;2023-04-06T02:17:51;9.40;1.00
48575;DHT22;34352;51.084;3.712;2023-04-06T02:20:17;9.40;1.00
48575;DHT22;34352;51.084;3.712;2023-04-06T02:22:43;9.40;1.00
48575;DHT22;34352;51.084;3.712;2023-04-06T02:25:09;9.40;1.00
48575;DHT22;34352;51.084;3.712;2023-04-06T02:27:35;9.50;1.00
48575;DHT22;34352;51.084;3.712;2023-04-06T02:30:02;9.50;1.00
48575;DHT22;34352;51.084;3.712;2023-04-06T02:32:29;9.50;1.00
48575;DHT22;34352;51.084;3.712;2023-04-06T02:34:55;9.40;1.00
48575;DHT22;34352;51.084;3.712;2023-04-06T02:37:22;9.40;1.00
48575;DHT22;34352;51.084;3.712;2023-04-06T02:39:49;9.40;1.00
48575;DHT22;34352;51.084;3.712;2023-04-06T02:42:15;9.30;1.00
48575;DHT22;34352;51.084;3.712;2023-04-06T02:44:42;9.20;1.00
48575;DHT22;34352;51.084;3.712;2023-04-06T02:47:08;9.20;1.00
48575;DHT22;34352;51.084;3.712;2023-04-06T02:49:34;9.20;1.00
48575;DHT22;34352;51.084;3.712;2023-04-06T02:52:00;9.10;1.00
48575;DHT22;34352;51.084;3.712;2023-04-06T02:54:26;9.00;1.00
48575;DHT22;34352;51.084;3.712;2023-04-06T02:56:51;9.00;1.00
48575;DHT22;34352;51.084;3.712;2023-04-06T02:59:17;9.10;1.00
48575;DHT22;34352;51.084;3.712;2023-04-06T03:01:43;9.10;1.00
48575;DHT22;34352;51.084;3.712;2023-04-06T03:04:09;9.10;1.00
48575;DHT22;34352;51.084;3.712;2023-04-06T03:06:36;9.10;1.00
48575;DHT22;34352;51.084;3.712;2023-04-06T03:09:02;9.00;1.00
48575;DHT22;34352;51.084;3.712;2023-04-06T03:11:28;9.00;1.00
48575;DHT22;34352;51.084;3.712;2023-04-06T03:13:53;9.00;1.00
48575;DHT22;34352;51.084;3.712;2023-04-06T03:16:19;8.90;1.00
48575;DHT22;34352;51.084;3.712;2023-04-06T03:18:45;8.90;1.00
48575;DHT22;34352;51.084;3.712;2023-04-06T03:21:13;8.90;1.00
48575;DHT22;34352;51.084;3.712;2023-04-06T03:23:42;8.90;1.00
48575;DHT22;34352;51.084;3.712;2023-04-06T03:26:07;8.90;1.00
48575;DHT22;34352;51.084;3.712;2023-04-06T03:28:33;9.00;1.00
48575;DHT22;34352;51.084;3.712;2023-04-06T03:30:59;8.90;1.00
48575;DHT22;34352;51.084;3.712;2023-04-06T03:33:25;8.90;1.00
48575;DHT22;34352;51.084;3.712;2023-04-06T03:35:54;8.90;1.00
48575;DHT22;34352;51.084;3.712;2023-04-06T03:38:20;8.90;1.00
48575;DHT22;34352;51.084;3.712;2023-04-06T03:40:47;8.90;1.00
48575;DHT22;34352;51.084;3.712;2023-04-06T03:43:13;8.90;1.00
48575;DHT22;34352;51.084;3.712;2023-04-06T03:45:39;8.90;1.00
48575;DHT22;34352;51.084;3.712;2023-04-06T03:48:05;8.90;1.00
48575;DHT22;34352;51.084;3.712;2023-04-06T03:50:31;8.90;1.00
48575;DHT22;34352;51.084;3.712;2023-04-06T03:52:56;8.90;1.00
48575;DHT22;34352;51.084;3.712;2023-04-06T03:55:22;8.90;1.00
48575;DHT22;34352;51.084;3.712;2023-04-06T03:57:48;8.90;1.00
48575;DHT22;34352;51.084;3.712;2023-04-06T04:00:14;8.90;1.00
48575;DHT22;34352;51.084;3.712;2023-04-06T04:02:40;8.80;1.00
48575;DHT22;34352;51.084;3.712;2023-04-06T04:05:06;8.80;1.00
48575;DHT22;34352;51.084;3.712;2023-04-06T04:07:32;8.70;1.00
48575;DHT22;34352;51.084;3.712;2023-04-06T04:09:58;8.70;1.00
48575;DHT22;34352;51.084;3.712;2023-04-06T04:12:25;8.80;1.00
48575;DHT22;34352;51.084;3.712;2023-04-06T04:14:50;8.80;1.00
48575;DHT22;34352;51.084;3.712;2023-04-06T04:17:16;8.80;1.00
48575;DHT22;34352;51.084;3.712;2023-04-06T04:19:42;8.80;1.00
48575;DHT22;34352;51.084;3.712;2023-04-06T04:22:08;8.80;1.00
48575;DHT22;34352;51.084;3.712;2023-04-06T04:24:34;8.90;1.00
48575;DHT22;34352;51.084;3.712;2023-04-06T04:27:01;8.90;1.00
48575;DHT22;34352;51.084;3.712;2023-04-06T04:29:27;8.90;1.00
48575;DHT22;34352;51.084;3.712;2023-04-06T04:31:54;8.80;1.00
48575;DHT22;34352;51.084;3.712;2023-04-06T04:34:20;8.70;1.00
48575;DHT22;34352;51.084;3.712;2023-04-06T04:36:46;8.80;1.00
48575;DHT22;34352;51.084;3.712;2023-04-06T04:39:12;8.80;1.00
48575;DHT22;34352;51.084;3.712;2023-04-06T04:41:37;8.80;1.00
48575;DHT22;34352;51.084;3.712;2023-04-06T04:44:03;8.60;1.00
48575;DHT22;34352;51.084;3.712;2023-04-06T04:46:29;8.60;1.00
48575;DHT22;34352;51.084;3.712;2023-04-06T04:48:55;8.60;1.00
48575;DHT22;34352;51.084;3.712;2023-04-06T04:51:21;8.70;1.00
48575;DHT22;34352;51.084;3.712;2023-04-06T04:53:47;8.70;1.00
48575;DHT22;34352;51.084;3.712;2023-04-06T04:56:14;8.70;1.00
48575;DHT22;34352;51.084;3.712;2023-04-06T04:58:40;8.70;1.00
48575;DHT22;34352;51.084;3.712;2023-04-06T05:01:06;8.70;1.00
48575;DHT22;34352;51.084;3.712;2023-04-06T05:03:32;8.70;1.00
48575;DHT22;34352;51.084;3.712;2023-04-06T05:05:58;8.70;1.00
48575;DHT22;34352;51.084;3.712;2023-04-06T05:08:24;8.70;1.00
48575;DHT22;34352;51.084;3.712;2023-04-06T05:10:50;8.60;1.00
48575;DHT22;34352;51.084;3.712;2023-04-06T05:13:16;8.60;1.00
48575;DHT22;34352;51.084;3.712;2023-04-06T05:15:42;8.60;1.00
48575;DHT22;34352;51.084;3.712;2023-04-06T05:18:08;8.50;1.00
48575;DHT22;34352;51.084;3.712;2023-04-06T05:20:35;8.40;7.60
48575;DHT22;34352;51.084;3.712;2023-04-06T05:23:01;8.40;15.00
48575;DHT22;34352;51.084;3.712;2023-04-06T05:25:28;8.30;19.70
48575;DHT22;34352;51.084;3.712;2023-04-06T05:27:56;8.30;21.80
48575;DHT22;34352;51.084;3.712;2023-04-06T05:30:28;8.40;23.80
48575;DHT22;34352;51.084;3.712;2023-04-06T05:32:55;8.30;26.90
48575;DHT22;34352;51.084;3.712;2023-04-06T05:35:22;8.30;33.90
48575;DHT22;34352;51.084;3.712;2023-04-06T05:37:47;8.30;32.20
48575;DHT22;34352;51.084;3.712;2023-04-06T05:40:13;8.30;36.60
48575;DHT22;34352;51.084;3.712;2023-04-06T05:42:40;8.30;39.70
48575;DHT22;34352;51.084;3.712;2023-04-06T05:45:08;8.30;40.30
48575;DHT22;34352;51.084;3.712;2023-04-06T05:47:34;8.30;42.90
48575;DHT22;34352;51.084;3.712;2023-04-06T05:50:00;8.20;47.70
48575;DHT22;34352;51.084;3.712;2023-04-06T05:52:27;8.30;48.60
48575;DHT22;34352;51.084;3.712;2023-04-06T05:54:53;8.30;48.10
48575;DHT22;34352;51.084;3.712;2023-04-06T05:57:20;8.10;54.80
48575;DHT22;34352;51.084;3.712;2023-04-06T05:59:46;8.00;56.00
48575;DHT22;34352;51.084;3.712;2023-04-06T06:02:12;7.90;58.30
48575;DHT22;34352;51.084;3.712;2023-04-06T06:04:38;7.90;58.80
48575;DHT22;34352;51.084;3.712;2023-04-06T06:07:03;7.90;60.10
48575;DHT22;34352;51.084;3.712;2023-04-06T06:09:29;7.90;56.00
48575;DHT22;34352;51.084;3.712;2023-04-06T06:11:55;7.90;60.20
48575;DHT22;34352;51.084;3.712;2023-04-06T06:14:21;7.80;62.20
48575;DHT22;34352;51.084;3.712;2023-04-06T06:16:47;7.80;64.90
48575;DHT22;34352;51.084;3.712;2023-04-06T06:19:13;7.80;61.40
48575;DHT22;34352;51.084;3.712;2023-04-06T06:21:39;7.70;57.60
48575;DHT22;34352;51.084;3.712;2023-04-06T06:24:07;7.60;55.90
48575;DHT22;34352;51.084;3.712;2023-04-06T06:26:34;7.50;61.20
48575;DHT22;34352;51.084;3.712;2023-04-06T06:29:07;7.50;60.80
48575;DHT22;34352;51.084;3.712;2023-04-06T06:31:33;7.50;64.80
48575;DHT22;34352;51.084;3.712;2023-04-06T06:34:00;7.50;61.50
48575;DHT22;34352;51.084;3.712;2023-04-06T06:36:27;7.50;62.00
48575;DHT22;34352;51.084;3.712;2023-04-06T06:38:53;7.40;63.00
48575;DHT22;34352;51.084;3.712;2023-04-06T06:41:19;7.30;63.30
48575;DHT22;34352;51.084;3.712;2023-04-06T06:43:44;7.30;61.90
48575;DHT22;34352;51.084;3.712;2023-04-06T06:46:10;7.30;65.90
48575;DHT22;34352;51.084;3.712;2023-04-06T06:48:36;7.40;66.00
48575;DHT22;34352;51.084;3.712;2023-04-06T06:51:02;7.40;66.20
48575;DHT22;34352;51.084;3.712;2023-04-06T06:53:52;7.60;63.30
48575;DHT22;34352;51.084;3.712;2023-04-06T06:56:38;8.60;64.50
48575;DHT22;34352;51.084;3.712;2023-04-06T06:59:05;7.60;65.80
48575;DHT22;34352;51.084;3.712;2023-04-06T07:01:41;7.60;66.60
48575;DHT22;34352;51.084;3.712;2023-04-06T07:04:08;7.70;70.00
48575;DHT22;34352;51.084;3.712;2023-04-06T07:09:39;7.70;71.30
48575;DHT22;34352;51.084;3.712;2023-04-06T07:12:06;8.00;67.80
48575;DHT22;34352;51.084;3.712;2023-04-06T07:14:34;7.90;64.50
48575;DHT22;34352;51.084;3.712;2023-04-06T07:17:05;7.80;65.40
48575;DHT22;34352;51.084;3.712;2023-04-06T07:19:40;6.10;64.20
48575;DHT22;34352;51.084;3.712;2023-04-06T07:22:09;8.10;65.50
48575;DHT22;34352;51.084;3.712;2023-04-06T07:24:58;7.80;72.30
48575;DHT22;34352;51.084;3.712;2023-04-06T07:27:26;8.40;76.00
48575;DHT22;34352;51.084;3.712;2023-04-06T07:29:52;7.80;75.00
48575;DHT22;34352;51.084;3.712;2023-04-06T07:32:18;7.80;73.90
48575;DHT22;34352;51.084;3.712;2023-04-06T07:34:43;7.70;75.90
48575;DHT22;34352;51.084;3.712;2023-04-06T07:37:10;6.90;77.40
48575;DHT22;34352;51.084;3.712;2023-04-06T07:39:38;7.50;77.30
48575;DHT22;34352;51.084;3.712;2023-04-06T07:42:05;7.60;81.00
48575;DHT22;34352;51.084;3.712;2023-04-06T07:44:31;7.50;81.30
48575;DHT22;34352;51.084;3.712;2023-04-06T07:47:16;7.50;82.80
48575;DHT22;34352;51.084;3.712;2023-04-06T07:49:42;6.70;84.00
48575;DHT22;34352;51.084;3.712;2023-04-06T07:52:13;7.50;83.70
48575;DHT22;34352;51.084;3.712;2023-04-06T07:54:47;7.00;83.70
48575;DHT22;34352;51.084;3.712;2023-04-06T07:57:14;7.70;85.70
48575;DHT22;34352;51.084;3.712;2023-04-06T07:59:42;7.60;85.30
48575;DHT22;34352;51.084;3.712;2023-04-06T08:02:14;7.60;86.90
48575;DHT22;34352;51.084;3.712;2023-04-06T08:04:40;7.60;86.80
48575;DHT22;34352;51.084;3.712;2023-04-06T08:07:07;7.70;88.20
48575;DHT22;34352;51.084;3.712;2023-04-06T08:09:34;7.80;89.10
48575;DHT22;34352;51.084;3.712;2023-04-06T08:12:01;7.90;86.30
48575;DHT22;34352;51.084;3.712;2023-04-06T08:14:30;7.00;86.60
48575;DHT22;34352;51.084;3.712;2023-04-06T08:16:56;7.70;88.50
48575;DHT22;34352;51.084;3.712;2023-04-06T08:19:22;7.90;89.40
48575;DHT22;34352;51.084;3.712;2023-04-06T08:21:48;7.90;87.10
48575;DHT22;34352;51.084;3.712;2023-04-06T08:24:14;7.90;86.60
48575;DHT22;34352;51.084;3.712;2023-04-06T08:26:40;8.00;88.80
48575;DHT22;34352;51.084;3.712;2023-04-06T08:29:07;7.90;87.50
48575;DHT22;34352;51.084;3.712;2023-04-06T08:31:35;8.00;87.00
48575;DHT22;34352;51.084;3.712;2023-04-06T08:34:03;8.00;87.10
48575;DHT22;34352;51.084;3.712;2023-04-06T08:36:31;8.10;86.90
48575;DHT22;34352;51.084;3.712;2023-04-06T08:38:59;8.00;87.30
48575;DHT22;34352;51.084;3.712;2023-04-06T08:41:25;8.00;87.80
48575;DHT22;34352;51.084;3.712;2023-04-06T08:44:00;7.80;87.50
48575;DHT22;34352;51.084;3.712;2023-04-06T08:46:26;7.80;90.20
48575;DHT22;34352;51.084;3.712;2023-04-06T08:48:58;7.70;90.20
48575;DHT22;34352;51.084;3.712;2023-04-06T08:51:25;7.70;90.70
48575;DHT22;34352;51.084;3.712;2023-04-06T08:53:56;7.80;91.00
48575;DHT22;34352;51.084;3.712;2023-04-06T08:56:23;7.70;90.90
48575;DHT22;34352;51.084;3.712;2023-04-06T08:58:49;7.70;91.10
48575;DHT22;34352;51.084;3.712;2023-04-06T09:01:18;7.70;91.50
48575;DHT22;34352;51.084;3.712;2023-04-06T09:03:46;7.90;91.80
48575;DHT22;34352;51.084;3.712;2023-04-06T09:06:14;7.90;91.90
48575;DHT22;34352;51.084;3.712;2023-04-06T09:08:40;7.90;91.70
48575;DHT22;34352;51.084;3.712;2023-04-06T09:11:08;8.00;92.00
48575;DHT22;34352;51.084;3.712;2023-04-06T09:13:50;8.10;91.90
48575;DHT22;34352;51.084;3.712;2023-04-06T09:16:17;8.10;91.50
48575;DHT22;34352;51.084;3.712;2023-04-06T09:18:44;8.10;91.40
48575;DHT22;34352;51.084;3.712;2023-04-06T09:21:10;8.10;91.30
48575;DHT22;34352;51.084;3.712;2023-04-06T09:23:37;8.10;91.50
48575;DHT22;34352;51.084;3.712;2023-04-06T09:26:14;8.10;91.90
48575;DHT22;34352;51.084;3.712;2023-04-06T09:28:47;8.10;91.60
48575;DHT22;34352;51.084;3.712;2023-04-06T09:31:14;7.90;91.50
48575;DHT22;34352;51.084;3.712;2023-04-06T09:33:41;7.90;92.30
48575;DHT22;34352;51.084;3.712;2023-04-06T09:36:08;7.90;92.40
48575;DHT22;34352;51.084;3.712;2023-04-06T09:38:50;8.00;92.70
48575;DHT22;34352;51.084;3.712;2023-04-06T09:41:28;8.10;92.90
48575;DHT22;34352;51.084;3.712;2023-04-06T09:44:03;8.10;92.70
48575;DHT22;34352;51.084;3.712;2023-04-06T09:46:32;8.10;92.50
48575;DHT22;34352;51.084;3.712;2023-04-06T09:49:01;8.10;92.60
48575;DHT22;34352;51.084;3.712;2023-04-06T09:51:30;8.20;93.10
48575;DHT22;34352;51.084;3.712;2023-04-06T09:53:57;8.00;93.20
48575;DHT22;34352;51.084;3.712;2023-04-06T09:56:30;8.00;93.40
48575;DHT22;34352;51.084;3.712;2023-04-06T09:59:01;8.00;93.40
48575;DHT22;34352;51.084;3.712;2023-04-06T10:01:31;8.10;93.60
48575;DHT22;34352;51.084;3.712;2023-04-06T10:07:06;8.30;93.90
48575;DHT22;34352;51.084;3.712;2023-04-06T10:09:35;8.20;93.80
48575;DHT22;34352;51.084;3.712;2023-04-06T10:12:18;8.20;94.10
48575;DHT22;34352;51.084;3.712;2023-04-06T10:14:47;8.20;94.20
48575;DHT22;34352;51.084;3.712;2023-04-06T10:17:14;8.20;94.40
48575;DHT22;34352;51.084;3.712;2023-04-06T10:20:01;8.20;94.50
48575;DHT22;34352;51.084;3.712;2023-04-06T10:23:00;8.20;94.70
48575;DHT22;34352;51.084;3.712;2023-04-06T10:25:31;8.20;94.80
48575;DHT22;34352;51.084;3.712;2023-04-06T10:28:04;8.30;95.10
48575;DHT22;34352;51.084;3.712;2023-04-06T10:30:37;8.40;95.30
48575;DHT22;34352;51.084;3.712;2023-04-06T10:33:17;8.50;95.40
48575;DHT22;34352;51.084;3.712;2023-04-06T10:35:44;8.50;95.10
48575;DHT22;34352;51.084;3.712;2023-04-06T10:38:10;8.40;94.40
48575;DHT22;34352;51.084;3.712;2023-04-06T10:40:40;8.40;94.70
48575;DHT22;34352;51.084;3.712;2023-04-06T10:43:26;8.40;94.80
48575;DHT22;34352;51.084;3.712;2023-04-06T10:45:56;8.40;95.20
48575;DHT22;34352;51.084;3.712;2023-04-06T10:48:22;8.50;95.40
48575;DHT22;34352;51.084;3.712;2023-04-06T10:50:51;8.60;95.60
48575;DHT22;34352;51.084;3.712;2023-04-06T10:53:26;8.60;95.70
48575;DHT22;34352;51.084;3.712;2023-04-06T10:55:54;8.60;95.60
48575;DHT22;34352;51.084;3.712;2023-04-06T10:58:27;8.70;95.80
48575;DHT22;34352;51.084;3.712;2023-04-06T11:00:54;8.70;95.50
48575;DHT22;34352;51.084;3.712;2023-04-06T11:03:25;8.80;95.50
48575;DHT22;34352;51.084;3.712;2023-04-06T11:05:52;8.90;95.50
48575;DHT22;34352;51.084;3.712;2023-04-06T11:08:34;8.80;95.30
48575;DHT22;34352;51.084;3.712;2023-04-06T11:11:12;8.90;95.40
48575;DHT22;34352;51.084;3.712;2023-04-06T11:13:49;8.90;95.30
48575;DHT22;34352;51.084;3.712;2023-04-06T11:16:17;8.90;95.10
48575;DHT22;34352;51.084;3.712;2023-04-06T11:21:20;9.00;95.60
48575;DHT22;34352;51.084;3.712;2023-04-06T11:23:47;8.90;95.30
48575;DHT22;34352;51.084;3.712;2023-04-06T11:26:13;9.00;95.50
48575;DHT22;34352;51.084;3.712;2023-04-06T11:28:43;9.00;95.60
48575;DHT22;34352;51.084;3.712;2023-04-06T11:31:12;9.00;94.80
48575;DHT22;34352;51.084;3.712;2023-04-06T11:33:40;9.00;95.10
48575;DHT22;34352;51.084;3.712;2023-04-06T11:36:07;9.00;95.00
48575;DHT22;34352;51.084;3.712;2023-04-06T11:38:33;9.10;95.30
48575;DHT22;34352;51.084;3.712;2023-04-06T11:41:01;9.00;94.90
48575;DHT22;34352;51.084;3.712;2023-04-06T11:43:33;9.10;95.60
48575;DHT22;34352;51.084;3.712;2023-04-06T11:46:03;9.20;95.50
48575;DHT22;34352;51.084;3.712;2023-04-06T11:48:43;9.10;95.20
48575;DHT22;34352;51.084;3.712;2023-04-06T11:51:09;9.10;95.30
48575;DHT22;34352;51.084;3.712;2023-04-06T11:53:48;9.10;95.10
48575;DHT22;34352;51.084;3.712;2023-04-06T11:56:30;9.10;95.20
48575;DHT22;34352;51.084;3.712;2023-04-06T11:59:00;9.10;94.60
48575;DHT22;34352;51.084;3.712;2023-04-06T12:01:44;9.20;95.00
48575;DHT22;34352;51.084;3.712;2023-04-06T12:04:17;9.10;94.00
48575;DHT22;34352;51.084;3.712;2023-04-06T12:06:58;9.10;94.40
48575;DHT22;34352;51.084;3.712;2023-04-06T12:09:26;9.10;94.70
48575;DHT22;34352;51.084;3.712;2023-04-06T12:11:52;9.10;94.70
48575;DHT22;34352;51.084;3.712;2023-04-06T12:14:20;8.80;94.90
48575;DHT22;34352;51.084;3.712;2023-04-06T12:17:01;9.10;95.00
48575;DHT22;34352;51.084;3.712;2023-04-06T12:19:27;9.10;94.80
48575;DHT22;34352;51.084;3.712;2023-04-06T12:21:59;9.20;94.50
48575;DHT22;34352;51.084;3.712;2023-04-06T12:24:25;9.30;93.90
48575;DHT22;34352;51.084;3.712;2023-04-06T12:26:53;9.10;93.60
48575;DHT22;34352;51.084;3.712;2023-04-06T12:29:21;9.20;94.20
48575;DHT22;34352;51.084;3.712;2023-04-06T12:31:48;9.20;94.60
48575;DHT22;34352;51.084;3.712;2023-04-06T12:34:15;9.40;94.30
48575;DHT22;34352;51.084;3.712;2023-04-06T12:36:42;9.50;94.10
48575;DHT22;34352;51.084;3.712;2023-04-06T12:39:08;9.40;93.60
48575;DHT22;34352;51.084;3.712;2023-04-06T12:41:34;9.40;94.00
48575;DHT22;34352;51.084;3.712;2023-04-06T12:44:00;8.60;93.90
48575;DHT22;34352;51.084;3.712;2023-04-06T12:46:40;9.50;93.90
48575;DHT22;34352;51.084;3.712;2023-04-06T12:49:13;9.60;93.30
48575;DHT22;34352;51.084;3.712;2023-04-06T12:51:42;9.60;93.30
48575;DHT22;34352;51.084;3.712;2023-04-06T12:54:08;9.70;92.80
48575;DHT22;34352;51.084;3.712;2023-04-06T12:56:39;9.70;92.70
48575;DHT22;34352;51.084;3.712;2023-04-06T12:59:05;9.70;92.70
48575;DHT22;34352;51.084;3.712;2023-04-06T13:01:31;9.70;92.30
48575;DHT22;34352;51.084;3.712;2023-04-06T13:04:00;9.70;92.50
48575;DHT22;34352;51.084;3.712;2023-04-06T13:06:26;9.60;92.90
48575;DHT22;34352;51.084;3.712;2023-04-06T13:08:54;9.60;93.60
48575;DHT22;34352;51.084;3.712;2023-04-06T13:11:20;9.60;93.60
48575;DHT22;34352;51.084;3.712;2023-04-06T13:13:47;9.60;93.80
48575;DHT22;34352;51.084;3.712;2023-04-06T13:16:13;9.70;93.50
48575;DHT22;34352;51.084;3.712;2023-04-06T13:18:39;9.80;93.40
48575;DHT22;34352;51.084;3.712;2023-04-06T13:21:07;9.80;93.40
48575;DHT22;34352;51.084;3.712;2023-04-06T13:23:35;10.00;92.90
48575;DHT22;34352;51.084;3.712;2023-04-06T13:26:04;10.00;92.30
48575;DHT22;34352;51.084;3.712;2023-04-06T13:28:32;9.90;92.90
48575;DHT22;34352;51.084;3.712;2023-04-06T13:31:01;9.90;92.90
48575;DHT22;34352;51.084;3.712;2023-04-06T13:33:29;10.10;93.10
48575;DHT22;34352;51.084;3.712;2023-04-06T13:35:56;10.10;92.30
48575;DHT22;34352;51.084;3.712;2023-04-06T13:38:23;10.10;92.20
48575;DHT22;34352;51.084;3.712;2023-04-06T13:40:49;10.20;93.00
48575;DHT22;34352;51.084;3.712;2023-04-06T13:43:17;10.30;92.90
48575;DHT22;34352;51.084;3.712;2023-04-06T13:45:54;10.20;92.20
48575;DHT22;34352;51.084;3.712;2023-04-06T13:48:21;10.30;92.50
48575;DHT22;34352;51.084;3.712;2023-04-06T13:50:47;10.40;92.50
48575;DHT22;34352;51.084;3.712;2023-04-06T13:53:14;10.40;91.90
48575;DHT22;34352;51.084;3.712;2023-04-06T13:55:40;10.50;91.90
48575;DHT22;34352;51.084;3.712;2023-04-06T13:58:07;10.60;91.40
48575;DHT22;34352;51.084;3.712;2023-04-06T14:00:33;10.50;92.10
48575;DHT22;34352;51.084;3.712;2023-04-06T14:02:59;10.60;92.40
48575;DHT22;34352;51.084;3.712;2023-04-06T14:05:33;10.70;91.90
48575;DHT22;34352;51.084;3.712;2023-04-06T14:08:01;10.60;92.50
48575;DHT22;34352;51.084;3.712;2023-04-06T14:10:27;10.60;92.90
48575;DHT22;34352;51.084;3.712;2023-04-06T14:12:59;10.60;93.10
48575;DHT22;34352;51.084;3.712;2023-04-06T14:15:26;10.70;93.40
48575;DHT22;34352;51.084;3.712;2023-04-06T14:17:53;10.50;94.20
48575;DHT22;34352;51.084;3.712;2023-04-06T14:20:20;10.50;94.70
48575;DHT22;34352;51.084;3.712;2023-04-06T14:22:45;10.50;94.30
48575;DHT22;34352;51.084;3.712;2023-04-06T14:25:12;10.60;94.30
48575;DHT22;34352;51.084;3.712;2023-04-06T14:27:39;10.60;94.60
48575;DHT22;34352;51.084;3.712;2023-04-06T14:30:13;10.70;94.50
48575;DHT22;34352;51.084;3.712;2023-04-06T14:32:39;10.80;94.90
48575;DHT22;34352;51.084;3.712;2023-04-06T14:35:06;10.90;95.00
48575;DHT22;34352;51.084;3.712;2023-04-06T14:37:33;11.00;94.50
48575;DHT22;34352;51.084;3.712;2023-04-06T14:39:59;10.90;94.50
48575;DHT22;34352;51.084;3.712;2023-04-06T14:42:25;10.90;94.70
48575;DHT22;34352;51.084;3.712;2023-04-06T14:44:51;10.90;94.90
48575;DHT22;34352;51.084;3.712;2023-04-06T14:47:20;10.90;95.40
48575;DHT22;34352;51.084;3.712;2023-04-06T14:49:52;11.00;95.40
48575;DHT22;34352;51.084;3.712;2023-04-06T14:52:22;11.10;95.10
48575;DHT22;34352;51.084;3.712;2023-04-06T14:57:51;11.20;95.10
48575;DHT22;34352;51.084;3.712;2023-04-06T15:03:39;11.20;95.30
48575;DHT22;34352;51.084;3.712;2023-04-06T15:06:12;11.30;95.00
48575;DHT22;34352;51.084;3.712;2023-04-06T15:08:44;11.30;95.20
48575;DHT22;34352;51.084;3.712;2023-04-06T15:11:12;11.30;95.50
48575;DHT22;34352;51.084;3.712;2023-04-06T15:13:41;11.40;95.60
48575;DHT22;34352;51.084;3.712;2023-04-06T15:16:08;11.50;95.60
48575;DHT22;34352;51.084;3.712;2023-04-06T15:18:34;11.60;95.30
48575;DHT22;34352;51.084;3.712;2023-04-06T15:21:01;11.60;95.00
48575;DHT22;34352;51.084;3.712;2023-04-06T15:23:27;11.70;95.00
48575;DHT22;34352;51.084;3.712;2023-04-06T15:25:57;11.70;94.10
48575;DHT22;34352;51.084;3.712;2023-04-06T15:28:23;11.70;94.30
48575;DHT22;34352;51.084;3.712;2023-04-06T15:30:59;11.80;94.50
48575;DHT22;34352;51.084;3.712;2023-04-06T15:33:29;12.00;94.00
48575;DHT22;34352;51.084;3.712;2023-04-06T15:35:56;12.00;93.80
48575;DHT22;34352;51.084;3.712;2023-04-06T15:38:23;12.00;93.50
48575;DHT22;34352;51.084;3.712;2023-04-06T15:40:48;12.00;93.30
48575;DHT22;34352;51.084;3.712;2023-04-06T15:43:16;12.00;93.30
48575;DHT22;34352;51.084;3.712;2023-04-06T15:45:42;12.00;92.80
48575;DHT22;34352;51.084;3.712;2023-04-06T15:48:09;12.00;93.10
48575;DHT22;34352;51.084;3.712;2023-04-06T15:50:37;11.70;93.70
48575;DHT22;34352;51.084;3.712;2023-04-06T15:53:03;11.60;94.90
48575;DHT22;34352;51.084;3.712;2023-04-06T15:55:30;11.60;95.30
48575;DHT22;34352;51.084;3.712;2023-04-06T15:57:55;11.60;94.70
48575;DHT22;34352;51.084;3.712;2023-04-06T16:00:23;11.60;94.30
48575;DHT22;34352;51.084;3.712;2023-04-06T16:02:49;11.60;93.90
48575;DHT22;34352;51.084;3.712;2023-04-06T16:05:16;11.60;93.60
48575;DHT22;34352;51.084;3.712;2023-04-06T16:07:43;11.50;93.70